Time;durP1;ratioP1;P1;durP2;ratioP2;P2;SDS_P1;SDS_P2;PMS_P1;PMS_P2;Temp;Humidity;BMP_temperature;BMP_pressure;BME280_temperature;BME280_humidity;BME280_pressure;Samples;Min_cycle;Max_cycle;Signal;HPM_P1;HPM_P2
2023/12/28 00:00:54;;;;;;;137.25;41.28;;;8.30;99.90;;;;;;4976239;28;20543;-86
2023/12/28 00:03:23;;;;;;;189.77;40.15;;;8.40;99.90;;;;;;4976412;28;20121;-86
2023/12/28 00:05:49;;;;;;;160.95;39.30;;;8.40;99.90;;;;;;4976354;28;20041;-86
2023/12/28 00:08:17;;;;;;;158.98;38.60;;;8.30;99.90;;;;;;4976069;28;20491;-87
2023/12/28 00:10:43;;;;;;;139.45;38.90;;;8.30;99.90;;;;;;4968078;28;20477;-89
2023/12/28 00:13:09;;;;;;;128.07;38.25;;;8.30;99.90;;;;;;4961303;28;20034;-88
2023/12/28 00:15:39;;;;;;;134.50;44.03;;;8.30;99.90;;;;;;4960371;28;20034;-89
2023/12/28 00:18:05;;;;;;;102.22;40.33;;;8.40;99.90;;;;;;4960183;28;20038;-88
2023/12/28 00:20:31;;;;;;;108.43;40.03;;;8.50;99.90;;;;;;4960020;28;20042;-88
2023/12/28 00:22:59;;;;;;;94.93;35.83;;;8.40;99.90;;;;;;4960117;28;20030;-88
2023/12/28 00:25:25;;;;;;;88.35;36.55;;;8.30;99.90;;;;;;4959883;28;20037;-88
2023/12/28 00:27:52;;;;;;;65.38;30.95;;;8.30;99.90;;;;;;4959752;28;20101;-87
2023/12/28 00:30:18;;;;;;;92.13;35.00;;;8.20;99.90;;;;;;4959875;28;20038;-88
2023/12/28 00:32:45;;;;;;;92.32;38.70;;;8.20;99.90;;;;;;4959701;28;20805;-87
2023/12/28 00:35:12;;;;;;;91.32;37.13;;;8.20;99.90;;;;;;4959840;28;20035;-88
2023/12/28 00:37:39;;;;;;;67.07;34.78;;;8.20;99.90;;;;;;4959758;28;20026;-88
2023/12/28 00:40:06;;;;;;;62.90;30.65;;;8.10;99.90;;;;;;4959445;28;20163;-87
2023/12/28 00:42:33;;;;;;;63.00;31.67;;;8.10;99.90;;;;;;4959568;28;20051;-87
2023/12/28 00:45:06;;;;;;;65.88;32.10;;;8.10;99.90;;;;;;4959694;28;20034;-88
2023/12/28 00:47:33;;;;;;;57.00;30.08;;;8.10;99.90;;;;;;4960524;28;20023;-88
2023/12/28 00:49:59;;;;;;;51.70;29.75;;;8.00;99.90;;;;;;4968512;28;20035;-87
2023/12/28 00:52:26;;;;;;;54.15;28.98;;;8.00;99.90;;;;;;4960543;28;20030;-88
2023/12/28 00:54:52;;;;;;;61.10;30.63;;;7.90;99.90;;;;;;4975371;28;20038;-88
2023/12/28 00:57:18;;;;;;;60.13;30.08;;;7.90;99.90;;;;;;4975576;28;20031;-88
2023/12/28 00:59:45;;;;;;;58.92;29.60;;;7.90;99.90;;;;;;4975462;28;20097;-89
2023/12/28 01:02:11;;;;;;;60.95;30.48;;;7.90;99.90;;;;;;4975323;28;20042;-88
2023/12/28 01:04:38;;;;;;;67.88;29.25;;;7.90;99.90;;;;;;4974734;28;20030;-88
2023/12/28 01:07:05;;;;;;;52.47;27.17;;;7.90;99.90;;;;;;4975135;28;20031;-87
2023/12/28 01:09:32;;;;;;;61.33;27.60;;;8.00;99.90;;;;;;4974562;28;20121;-88
2023/12/28 01:11:59;;;;;;;78.13;26.10;;;8.00;99.90;;;;;;4974956;28;20035;-87
2023/12/28 01:14:25;;;;;;;48.40;24.25;;;8.10;99.90;;;;;;4959102;28;20023;-88
2023/12/28 01:16:52;;;;;;;62.35;27.80;;;8.20;99.90;;;;;;4959125;28;20046;-88
2023/12/28 01:19:19;;;;;;;53.00;25.35;;;8.20;99.90;;;;;;4958802;28;20047;-88
2023/12/28 01:21:45;;;;;;;79.32;26.63;;;8.20;99.90;;;;;;4959078;28;20031;-88
2023/12/28 01:24:16;;;;;;;52.20;24.23;;;8.30;99.90;;;;;;4974778;28;20034;-89
2023/12/28 01:26:42;;;;;;;45.17;23.95;;;8.30;99.90;;;;;;4974874;28;20054;-88
2023/12/28 01:29:09;;;;;;;50.25;22.92;;;8.40;99.90;;;;;;4974823;28;20484;-88
2023/12/28 01:31:35;;;;;;;39.53;21.95;;;8.40;99.90;;;;;;4958872;28;20031;-87
2023/12/28 01:34:02;;;;;;;57.83;22.67;;;8.50;99.90;;;;;;4958741;28;20027;-87
2023/12/28 01:36:29;;;;;;;54.70;23.20;;;8.50;99.90;;;;;;4958768;28;20039;-88
2023/12/28 01:38:55;;;;;;;54.78;22.67;;;8.50;99.90;;;;;;4958566;28;20515;-88
2023/12/28 01:41:22;;;;;;;68.07;24.50;;;8.50;99.90;;;;;;4958301;28;20043;-88
2023/12/28 01:43:48;;;;;;;78.10;25.50;;;8.50;99.90;;;;;;4974812;28;20034;-88
2023/12/28 01:46:21;;;;;;;91.03;24.20;;;8.50;99.90;;;;;;4974578;28;20037;-87
2023/12/28 01:48:50;;;;;;;120.30;28.27;;;8.50;99.90;;;;;;4974522;28;20023;-87
2023/12/28 01:51:17;;;;;;;57.58;23.23;;;8.50;99.90;;;;;;4974310;28;20035;-87
2023/12/28 01:53:45;;;;;;;40.88;21.50;;;8.50;99.90;;;;;;4974627;28;20031;-87
2023/12/28 01:56:12;;;;;;;58.50;24.95;;;8.50;99.90;;;;;;4974582;28;20365;-87
2023/12/28 01:58:41;;;;;;;62.70;24.55;;;8.50;99.90;;;;;;4974588;28;20054;-87
2023/12/28 02:01:11;;;;;;;54.88;24.70;;;8.50;99.90;;;;;;4974173;28;20050;-87
2023/12/28 02:03:38;;;;;;;58.35;24.45;;;8.50;99.90;;;;;;4974386;28;20503;-87
2023/12/28 02:06:07;;;;;;;55.97;24.17;;;8.60;99.90;;;;;;4958328;28;20030;-87
2023/12/28 02:08:34;;;;;;;45.03;23.35;;;8.60;99.90;;;;;;4958087;28;20023;-88
2023/12/28 02:11:00;;;;;;;66.18;25.02;;;8.60;99.90;;;;;;4938928;29;20035;-88
2023/12/28 02:13:30;;;;;;;61.72;25.10;;;8.60;99.90;;;;;;4954893;29;20036;-87
2023/12/28 02:16:32;;;;;;;51.88;24.52;;;8.60;99.90;;;;;;4954456;28;20477;-88
2023/12/28 02:19:10;;;;;;;70.53;25.42;;;8.70;99.90;;;;;;4938908;29;20074;-87
2023/12/28 02:21:37;;;;;;;76.70;26.20;;;8.70;99.90;;;;;;4954696;29;20035;-87
2023/12/28 02:24:03;;;;;;;56.70;24.17;;;8.70;99.90;;;;;;4970929;28;20388;-88
2023/12/28 02:26:32;;;;;;;69.18;25.70;;;8.70;99.90;;;;;;4967029;28;20046;-87
2023/12/28 02:28:58;;;;;;;51.08;24.27;;;8.60;99.90;;;;;;4963425;29;20027;-87
2023/12/28 02:31:35;;;;;;;57.25;24.92;;;8.60;99.90;;;;;;4955155;29;20070;-87
2023/12/28 02:34:12;;;;;;;44.90;23.58;;;8.60;99.90;;;;;;4970540;28;20035;-87
2023/12/28 02:36:42;;;;;;;72.13;26.40;;;8.50;99.90;;;;;;4938758;29;20035;-87
2023/12/28 02:39:11;;;;;;;59.78;25.88;;;8.50;99.90;;;;;;4938452;29;20118;-87
2023/12/28 02:41:38;;;;;;;69.13;25.30;;;8.40;99.90;;;;;;4938363;29;20038;-86
2023/12/28 02:44:05;;;;;;;72.82;26.58;;;8.40;99.90;;;;;;4970576;28;20031;-87
2023/12/28 02:46:32;;;;;;;55.97;24.27;;;8.30;99.90;;;;;;4970692;28;20062;-87
2023/12/28 02:49:01;;;;;;;49.90;23.73;;;8.30;99.90;;;;;;4954527;29;20125;-88
2023/12/28 02:51:28;;;;;;;55.92;23.95;;;8.30;99.90;;;;;;4954125;29;20073;-87
2023/12/28 02:53:54;;;;;;;64.93;25.85;;;8.30;99.90;;;;;;4954393;28;20030;-88
2023/12/28 02:56:20;;;;;;;53.92;23.45;;;8.30;99.90;;;;;;4970591;28;20039;-88
2023/12/28 02:58:46;;;;;;;69.47;24.90;;;8.30;99.90;;;;;;4954497;28;20496;-88
2023/12/28 03:01:16;;;;;;;50.35;22.80;;;8.30;99.90;;;;;;4970490;28;20043;-87
2023/12/28 03:03:43;;;;;;;55.95;23.00;;;8.30;99.90;;;;;;4954632;28;20024;-87
2023/12/28 03:06:09;;;;;;;51.80;23.67;;;8.20;99.90;;;;;;4970765;28;20087;-87
2023/12/28 03:08:35;;;;;;;68.97;22.50;;;8.30;99.90;;;;;;4954669;28;20032;-87
2023/12/28 03:11:02;;;;;;;68.03;23.67;;;8.30;99.90;;;;;;4973566;28;20046;-87
2023/12/28 03:13:29;;;;;;;65.22;22.33;;;8.30;99.90;;;;;;4973748;28;20023;-88
2023/12/28 03:15:55;;;;;;;89.00;24.35;;;8.30;99.90;;;;;;4957991;28;20031;-88
2023/12/28 03:18:22;;;;;;;71.40;21.73;;;8.30;99.90;;;;;;4973656;28;20038;-88
2023/12/28 03:20:48;;;;;;;76.47;24.27;;;8.30;99.90;;;;;;4973509;28;20415;-87
2023/12/28 03:23:14;;;;;;;53.30;23.00;;;8.30;99.90;;;;;;4957649;28;20110;-86
2023/12/28 03:25:41;;;;;;;65.55;22.33;;;8.40;99.90;;;;;;4957685;28;20041;-88
2023/12/28 03:28:07;;;;;;;40.35;19.77;;;8.40;99.90;;;;;;4958746;28;20787;-88
2023/12/28 03:30:34;;;;;;;37.40;20.27;;;8.40;99.90;;;;;;4959885;28;20042;-87
2023/12/28 03:33:00;;;;;;;41.35;20.38;;;8.40;99.90;;;;;;4965031;28;20440;-88
2023/12/28 03:35:26;;;;;;;49.45;21.73;;;8.40;99.90;;;;;;4977130;28;20030;-87
2023/12/28 03:37:53;;;;;;;39.47;20.35;;;8.40;99.90;;;;;;4976655;28;20077;-88
2023/12/28 03:40:20;;;;;;;46.60;20.13;;;8.50;99.90;;;;;;4976835;28;20094;-88
2023/12/28 03:42:49;;;;;;;47.00;21.17;;;8.50;99.90;;;;;;4978919;28;20023;-88
2023/12/28 03:45:16;;;;;;;43.38;20.05;;;8.50;99.90;;;;;;4976789;28;20027;-87
2023/12/28 03:47:42;;;;;;;45.40;20.67;;;8.50;99.90;;;;;;4976826;28;20078;-87
2023/12/28 03:50:09;;;;;;;42.35;19.25;;;8.50;99.90;;;;;;4976715;28;20110;-88
2023/12/28 03:52:36;;;;;;;44.80;19.15;;;8.60;99.90;;;;;;4992615;28;20031;-87
2023/12/28 03:55:02;;;;;;;45.08;19.98;;;8.60;99.90;;;;;;4976601;28;20070;-88
2023/12/28 03:57:28;;;;;;;47.10;18.65;;;8.60;99.90;;;;;;4976576;28;20038;-88
2023/12/28 03:59:55;;;;;;;49.22;18.33;;;8.60;99.90;;;;;;4976986;28;20504;-87
2023/12/28 04:02:21;;;;;;;39.22;19.08;;;8.60;99.90;;;;;;4980315;28;20035;-88
2023/12/28 04:04:48;;;;;;;48.75;19.45;;;8.70;99.90;;;;;;4976262;28;20031;-89
2023/12/28 04:07:16;;;;;;;42.95;18.73;;;8.70;99.90;;;;;;4977883;28;20015;-88
2023/12/28 04:09:43;;;;;;;43.03;18.83;;;8.70;99.90;;;;;;4976481;28;20086;-88
2023/12/28 04:12:09;;;;;;;43.35;18.58;;;8.70;99.90;;;;;;4976203;28;20472;-89
2023/12/28 04:14:35;;;;;;;54.88;19.70;;;8.70;99.90;;;;;;4960275;28;20540;-88
2023/12/28 04:17:02;;;;;;;53.85;19.60;;;8.70;99.90;;;;;;4960339;28;20023;-89
2023/12/28 04:19:30;;;;;;;40.00;18.10;;;8.70;99.90;;;;;;4960061;28;20062;-91
2023/12/28 04:21:57;;;;;;;46.85;19.20;;;8.70;99.90;;;;;;4960131;28;20444;-91
2023/12/28 04:24:23;;;;;;;42.85;19.40;;;8.70;99.90;;;;;;4960184;28;20484;-91
2023/12/28 04:26:49;;;;;;;75.53;22.73;;;8.70;99.90;;;;;;4960173;28;20118;-89
2023/12/28 04:29:16;;;;;;;50.40;18.95;;;8.70;99.90;;;;;;4960324;28;20033;-88
2023/12/28 04:31:43;;;;;;;37.25;18.58;;;8.70;99.90;;;;;;4959827;28;20030;-88
2023/12/28 04:34:09;;;;;;;47.15;19.33;;;8.70;99.90;;;;;;4960018;28;20117;-89
2023/12/28 04:36:43;;;;;;;33.10;17.45;;;8.70;99.90;;;;;;4959821;28;20472;-88
2023/12/28 04:39:09;;;;;;;40.92;18.65;;;8.70;99.90;;;;;;4959213;28;20027;-88
2023/12/28 04:41:36;;;;;;;40.17;17.75;;;8.70;99.90;;;;;;4959517;28;20058;-89
2023/12/28 04:44:03;;;;;;;35.20;17.33;;;8.60;99.90;;;;;;4975847;28;20027;-88
2023/12/28 04:46:29;;;;;;;74.63;19.45;;;8.60;99.90;;;;;;4975605;28;20476;-88
2023/12/28 04:48:55;;;;;;;38.40;17.92;;;8.50;99.90;;;;;;4975767;28;20449;-88
2023/12/28 04:51:22;;;;;;;49.97;17.58;;;8.60;99.90;;;;;;4975406;28;20019;-88
2023/12/28 04:53:48;;;;;;;73.30;17.98;;;8.60;99.90;;;;;;4959563;28;20031;-87
2023/12/28 04:56:21;;;;;;;44.10;17.67;;;8.60;99.90;;;;;;4959476;28;20022;-89
2023/12/28 04:58:47;;;;;;;47.22;18.27;;;8.50;99.90;;;;;;4959231;28;20065;-88
2023/12/28 05:01:14;;;;;;;40.13;17.65;;;8.60;99.90;;;;;;4959088;28;20043;-86
2023/12/28 05:03:40;;;;;;;54.67;18.90;;;8.60;99.90;;;;;;4959202;28;20026;-86
2023/12/28 05:06:06;;;;;;;29.35;16.70;;;8.60;99.90;;;;;;4959194;28;20026;-88
2023/12/28 05:08:33;;;;;;;65.93;18.88;;;8.60;99.90;;;;;;4959199;28;20030;-86
2023/12/28 05:10:59;;;;;;;111.43;20.60;;;8.60;99.90;;;;;;4958691;28;20109;-87
2023/12/28 05:13:26;;;;;;;98.88;20.48;;;8.60;99.90;;;;;;4974946;28;20030;-86
2023/12/28 05:15:52;;;;;;;73.50;18.77;;;8.60;99.90;;;;;;4975066;28;20049;-88
2023/12/28 05:18:18;;;;;;;85.80;20.40;;;8.60;99.90;;;;;;4974949;28;20480;-86
2023/12/28 05:20:45;;;;;;;48.58;18.38;;;8.70;99.90;;;;;;4974596;28;20043;-87
2023/12/28 05:23:11;;;;;;;108.80;22.17;;;8.70;99.90;;;;;;4958234;28;20031;-87
2023/12/28 05:25:37;;;;;;;82.30;18.52;;;8.70;99.90;;;;;;4975215;28;20054;-87
2023/12/28 05:28:07;;;;;;;86.07;19.35;;;8.70;99.90;;;;;;4958664;28;20484;-86
2023/12/28 05:30:33;;;;;;;69.63;19.55;;;8.80;99.90;;;;;;4959563;28;20027;-91
2023/12/28 05:33:00;;;;;;;70.75;19.63;;;8.80;99.90;;;;;;4961114;28;20027;-87
2023/12/28 05:35:29;;;;;;;97.63;19.35;;;8.80;99.90;;;;;;4975105;28;20114;-88
2023/12/28 05:37:55;;;;;;;94.50;18.98;;;8.80;99.90;;;;;;4975013;28;20448;-89
2023/12/28 05:40:22;;;;;;;120.80;21.35;;;8.80;99.90;;;;;;4986739;28;20038;-84
2023/12/28 05:42:49;;;;;;;91.07;21.00;;;8.80;99.90;;;;;;4977780;28;20031;-87
2023/12/28 05:45:18;;;;;;;76.40;19.75;;;8.80;99.90;;;;;;4958403;28;20027;-87
2023/12/28 05:47:45;;;;;;;106.72;21.08;;;8.90;99.90;;;;;;4974499;28;20048;-87
2023/12/28 05:50:12;;;;;;;52.03;19.20;;;8.80;99.90;;;;;;4974532;28;20074;-87
2023/12/28 05:52:38;;;;;;;90.95;20.73;;;8.90;99.90;;;;;;4973563;28;20114;-87
2023/12/28 05:55:05;;;;;;;50.53;18.60;;;8.90;99.90;;;;;;4974330;28;20027;-87
2023/12/28 05:57:32;;;;;;;51.33;18.02;;;8.90;99.90;;;;;;4958084;28;20377;-88
2023/12/28 05:59:58;;;;;;;99.53;20.88;;;8.90;99.90;;;;;;4958027;28;20030;-86
2023/12/28 06:02:25;;;;;;;45.00;17.88;;;9.00;99.90;;;;;;4957862;28;20117;-87
2023/12/28 06:04:51;;;;;;;78.78;20.25;;;9.00;99.90;;;;;;4974284;28;20410;-87
2023/12/28 06:07:17;;;;;;;52.30;18.85;;;9.00;99.90;;;;;;4974157;28;20031;-86
2023/12/28 06:09:45;;;;;;;74.00;19.70;;;9.10;99.90;;;;;;4974103;28;20074;-87
2023/12/28 06:12:12;;;;;;;131.15;24.77;;;9.10;99.90;;;;;;4973959;28;20026;-87
2023/12/28 06:14:39;;;;;;;47.88;19.45;;;9.10;99.90;;;;;;4974316;28;20034;-87
2023/12/28 06:17:06;;;;;;;53.03;22.48;;;9.10;99.90;;;;;;4974233;28;20082;-88
2023/12/28 06:19:33;;;;;;;139.23;28.45;;;9.20;99.90;;;;;;4973842;28;20027;-87
2023/12/28 06:21:59;;;;;;;127.70;24.90;;;9.20;99.90;;;;;;4974003;28;20038;-88
2023/12/28 06:24:25;;;;;;;85.70;24.30;;;9.20;99.90;;;;;;4974033;28;20023;-86
2023/12/28 06:26:52;;;;;;;178.98;27.02;;;9.20;99.90;;;;;;4974054;28;20138;-87
2023/12/28 06:29:22;;;;;;;118.45;27.30;;;9.20;99.90;;;;;;4973948;28;20027;-86
2023/12/28 06:31:48;;;;;;;173.38;29.00;;;9.20;99.90;;;;;;4974012;28;20125;-88
2023/12/28 06:34:14;;;;;;;87.35;27.98;;;9.20;99.90;;;;;;4973971;28;20054;-87
2023/12/28 06:36:41;;;;;;;101.88;27.73;;;9.30;99.90;;;;;;4974180;28;20432;-87
2023/12/28 06:39:08;;;;;;;37.92;22.23;;;9.30;99.90;;;;;;4973726;28;20019;-87
2023/12/28 06:41:34;;;;;;;54.70;19.83;;;9.40;99.90;;;;;;4957602;28;20484;-87
2023/12/28 06:44:00;;;;;;;49.45;20.10;;;9.40;99.90;;;;;;4957694;28;20019;-86
2023/12/28 06:46:27;;;;;;;52.63;20.50;;;9.40;99.90;;;;;;4957891;28;20106;-87
2023/12/28 06:48:53;;;;;;;55.08;20.15;;;9.60;99.90;;;;;;4957640;28;20085;-88
2023/12/28 06:51:21;;;;;;;61.67;20.00;;;9.60;99.90;;;;;;4957727;28;20034;-87
2023/12/28 06:53:48;;;;;;;41.47;19.77;;;9.70;99.90;;;;;;4957824;28;20026;-88
2023/12/28 06:56:15;;;;;;;61.80;20.52;;;9.80;99.90;;;;;;4957817;28;20505;-86
2023/12/28 06:58:42;;;;;;;41.20;18.23;;;9.80;99.90;;;;;;4957749;28;20039;-86
2023/12/28 07:01:08;;;;;;;62.10;20.67;;;9.80;99.90;;;;;;4957551;28;20534;-87
2023/12/28 07:03:37;;;;;;;34.05;19.50;;;9.80;99.90;;;;;;4975411;28;20031;-87
2023/12/28 07:06:04;;;;;;;39.22;18.95;;;9.90;99.90;;;;;;4977770;28;20392;-87
2023/12/28 07:08:31;;;;;;;39.25;19.50;;;9.90;99.90;;;;;;4977513;28;20192;-86
2023/12/28 07:10:57;;;;;;;51.30;19.83;;;9.90;99.90;;;;;;4977087;28;20046;-87
2023/12/28 07:13:24;;;;;;;38.72;19.35;;;10.00;99.90;;;;;;4961264;28;20031;-88
2023/12/28 07:15:50;;;;;;;42.40;18.83;;;10.00;99.90;;;;;;4961280;28;20078;-84
2023/12/28 07:18:17;;;;;;;38.25;18.15;;;10.10;99.90;;;;;;4972339;28;20118;-86
2023/12/28 07:20:43;;;;;;;23.33;17.73;;;10.00;99.90;;;;;;4962167;28;20051;-88
2023/12/28 07:23:10;;;;;;;20.13;17.92;;;10.00;99.90;;;;;;4963080;28;20030;-88
2023/12/28 07:25:36;;;;;;;39.95;20.25;;;10.00;99.90;;;;;;4977176;28;20027;-87
2023/12/28 07:28:03;;;;;;;42.45;18.63;;;10.10;99.90;;;;;;4977146;28;20031;-88
2023/12/28 07:30:30;;;;;;;40.63;19.08;;;10.00;99.90;;;;;;4977148;28;20118;-88
2023/12/28 07:32:59;;;;;;;23.17;17.95;;;10.10;99.90;;;;;;4976910;28;20031;-87
2023/12/28 07:35:26;;;;;;;28.67;19.17;;;10.10;99.90;;;;;;4983369;28;20121;-86
2023/12/28 07:37:54;;;;;;;50.25;18.83;;;10.10;99.90;;;;;;4976973;28;20151;-87
2023/12/28 07:40:21;;;;;;;30.73;18.80;;;10.10;99.90;;;;;;4976704;28;20038;-87
2023/12/28 07:42:47;;;;;;;29.77;18.38;;;10.20;99.90;;;;;;4964958;28;20031;-87
2023/12/28 07:45:14;;;;;;;53.17;20.40;;;10.30;99.90;;;;;;4960705;28;20117;-87
2023/12/28 07:47:41;;;;;;;30.58;19.08;;;10.50;99.90;;;;;;4960817;28;20055;-88
2023/12/28 07:50:08;;;;;;;30.05;19.27;;;10.50;99.90;;;;;;4960810;28;20027;-87
2023/12/28 07:52:35;;;;;;;31.30;19.27;;;10.50;99.90;;;;;;4960509;28;20027;-88
2023/12/28 07:55:01;;;;;;;36.55;19.48;;;10.70;99.90;;;;;;4976655;28;20031;-88
2023/12/28 07:57:28;;;;;;;29.50;19.58;;;10.90;99.90;;;;;;4976587;28;20026;-88
2023/12/28 07:59:54;;;;;;;22.67;19.13;;;11.00;99.90;;;;;;4976335;28;20571;-88
2023/12/28 08:02:20;;;;;;;46.10;17.70;;;11.30;99.90;;;;;;4960492;28;20166;-87
2023/12/28 08:04:47;;;;;;;32.45;19.13;;;11.40;99.90;;;;;;4960326;28;20026;-87
2023/12/28 08:07:13;;;;;;;21.40;17.70;;;11.50;99.90;;;;;;4976283;28;20569;-88
2023/12/28 08:09:39;;;;;;;35.83;18.75;;;11.50;99.90;;;;;;4976355;28;20134;-87
2023/12/28 08:12:06;;;;;;;48.90;20.35;;;11.40;99.90;;;;;;4976319;28;20026;-89
2023/12/28 08:14:32;;;;;;;28.52;19.95;;;11.30;99.90;;;;;;4976075;28;20472;-88
2023/12/28 08:16:58;;;;;;;22.60;20.38;;;11.30;99.90;;;;;;4976215;28;20436;-88
2023/12/28 08:19:24;;;;;;;38.67;22.90;;;11.50;99.90;;;;;;4975968;28;20034;-87
2023/12/28 08:21:51;;;;;;;26.60;23.75;;;11.80;99.90;;;;;;4976146;28;20044;-88
2023/12/28 08:24:18;;;;;;;27.85;23.50;;;12.00;99.90;;;;;;4976037;28;20037;-88
2023/12/28 08:26:44;;;;;;;32.95;24.35;;;12.10;99.90;;;;;;4976252;28;20484;-89
2023/12/28 08:29:11;;;;;;;24.92;22.58;;;12.20;99.90;;;;;;4976240;28;20035;-89
2023/12/28 08:31:37;;;;;;;27.58;24.50;;;12.20;99.90;;;;;;4976102;28;20023;-88
2023/12/28 08:34:03;;;;;;;25.73;23.17;;;12.30;99.90;;;;;;4992089;28;20089;-87
2023/12/28 08:36:29;;;;;;;27.23;24.20;;;12.50;99.90;;;;;;4959257;28;20109;-88
2023/12/28 08:38:56;;;;;;;26.80;23.85;;;12.70;99.90;;;;;;4959805;28;20031;-88
2023/12/28 08:41:26;;;;;;;29.00;24.67;;;12.90;99.90;;;;;;4975782;28;20070;-88
2023/12/28 08:43:56;;;;;;;25.67;23.08;;;12.90;99.90;;;;;;4991686;28;20027;-88
2023/12/28 08:46:24;;;;;;;26.88;23.33;;;12.90;99.90;;;;;;4975824;28;20388;-89
2023/12/28 08:48:51;;;;;;;31.65;24.20;;;13.20;99.90;;;;;;4992475;28;20495;-88
2023/12/28 08:51:18;;;;;;;29.35;25.40;;;13.20;99.90;;;;;;4975738;28;20031;-86
2023/12/28 08:53:44;;;;;;;41.80;25.77;;;13.00;99.90;;;;;;4974766;28;20101;-89
2023/12/28 08:56:19;;;;;;;33.00;28.23;;;13.20;99.90;;;;;;4986736;28;20023;-88
2023/12/28 08:58:54;;;;;;;39.72;30.40;;;13.00;99.90;;;;;;4995902;28;20031;-91
2023/12/28 09:01:25;;;;;;;40.22;32.60;;;13.00;99.90;;;;;;4962425;28;20051;-91
2023/12/28 09:03:53;;;;;;;39.78;31.98;;;13.00;99.90;;;;;;4977433;28;20481;-91
2023/12/28 09:06:20;;;;;;;47.13;32.75;;;13.10;99.90;;;;;;4976172;28;20078;-88
2023/12/28 09:08:53;;;;;;;37.15;31.75;;;13.30;99.90;;;;;;4975193;28;20158;-89
2023/12/28 09:11:20;;;;;;;36.20;30.83;;;13.30;99.90;;;;;;4958346;28;20037;-88
2023/12/28 09:13:46;;;;;;;48.63;36.83;;;13.40;99.90;;;;;;4966003;28;20182;-91
2023/12/28 09:16:14;;;;;;;42.97;31.17;;;13.70;99.90;;;;;;4975581;28;20507;-90
2023/12/28 09:18:41;;;;;;;44.35;34.70;;;13.90;99.90;;;;;;4976795;28;20035;-91
2023/12/28 09:21:09;;;;;;;42.08;32.08;;;13.90;99.90;;;;;;4978358;28;20045;-91
2023/12/28 09:23:37;;;;;;;45.28;34.30;;;13.90;99.90;;;;;;4960481;28;20027;-91
2023/12/28 09:26:05;;;;;;;36.13;30.98;;;14.00;99.90;;;;;;4962338;28;20050;-89
2023/12/28 09:28:33;;;;;;;40.28;30.20;;;14.00;99.90;;;;;;4960470;28;20062;-91
2023/12/28 09:31:01;;;;;;;41.25;32.72;;;14.10;99.90;;;;;;4958818;28;20039;-90
2023/12/28 09:33:28;;;;;;;35.63;31.20;;;14.10;99.90;;;;;;4960381;28;20101;-90
2023/12/28 09:35:55;;;;;;;36.95;31.15;;;14.10;99.90;;;;;;4975117;28;20027;-92
2023/12/28 09:38:22;;;;;;;45.38;34.63;;;14.20;99.90;;;;;;4975045;28;20051;-90
2023/12/28 09:40:54;;;;;;;45.50;36.33;;;14.30;99.90;;;;;;4976779;28;20408;-88
2023/12/28 09:43:37;;;;;;;48.95;40.70;;;14.30;99.90;;;;;;4974280;28;20062;-87
2023/12/28 09:46:11;;;;;;;66.45;49.10;;;14.20;99.90;;;;;;4974526;28;20035;-88
2023/12/28 09:48:41;;;;;;;66.75;48.15;;;14.10;99.90;;;;;;4974423;28;20023;-88
2023/12/28 09:51:07;;;;;;;64.10;48.75;;;14.00;99.90;;;;;;4974518;28;20054;-87
2023/12/28 09:53:33;;;;;;;58.35;48.25;;;14.00;99.90;;;;;;4974300;28;20035;-87
2023/12/28 09:56:00;;;;;;;56.22;46.28;;;14.00;99.90;;;;;;4974283;28;20031;-88
2023/12/28 09:58:29;;;;;;;62.35;45.83;;;14.20;99.90;;;;;;4974077;28;20031;-87
2023/12/28 10:00:56;;;;;;;49.90;41.40;;;14.30;99.90;;;;;;4958265;28;20093;-88
2023/12/28 10:03:22;;;;;;;51.55;40.72;;;14.40;99.90;;;;;;4958098;28;20058;-87
2023/12/28 10:05:49;;;;;;;50.95;39.90;;;14.40;99.90;;;;;;4958239;28;20034;-88
2023/12/28 10:08:15;;;;;;;44.03;36.72;;;14.40;99.90;;;;;;4958017;28;20030;-88
2023/12/28 10:10:43;;;;;;;40.03;35.88;;;14.50;99.90;;;;;;4974140;28;20145;-88
2023/12/28 10:13:11;;;;;;;38.10;34.22;;;14.60;99.90;;;;;;4974144;28;20029;-87
2023/12/28 10:15:37;;;;;;;34.78;31.38;;;14.70;99.90;;;;;;4974253;28;20027;-88
2023/12/28 10:18:05;;;;;;;34.88;31.00;;;15.00;99.90;;;;;;4973950;28;20026;-88
2023/12/28 10:20:31;;;;;;;29.58;26.65;;;15.10;99.90;;;;;;4974150;28;20056;-88
2023/12/28 10:23:01;;;;;;;27.77;24.58;;;15.40;99.90;;;;;;4974220;28;20481;-88
2023/12/28 10:25:28;;;;;;;25.17;22.73;;;15.80;99.90;;;;;;4974150;28;20031;-88
2023/12/28 10:27:55;;;;;;;22.63;20.63;;;15.80;99.90;;;;;;4973638;28;20034;-87
2023/12/28 10:30:21;;;;;;;25.95;23.95;;;16.10;99.90;;;;;;4973850;28;20093;-87
2023/12/28 10:32:48;;;;;;;25.75;23.27;;;16.20;99.90;;;;;;4973982;28;20110;-87
2023/12/28 10:35:15;;;;;;;27.52;25.08;;;16.10;99.90;;;;;;4974236;28;20043;-87
2023/12/28 10:37:42;;;;;;;26.23;23.67;;;15.80;99.90;;;;;;4974630;28;20039;-87
2023/12/28 10:40:15;;;;;;;27.83;25.30;;;15.60;99.90;;;;;;4997790;28;20054;-87
2023/12/28 10:42:55;;;;;;;27.75;25.50;;;15.30;99.90;;;;;;4985574;28;20527;-87
2023/12/28 10:45:26;;;;;;;28.92;26.60;;;15.30;99.90;;;;;;4978215;28;20039;-87
2023/12/28 10:48:11;;;;;;;28.92;26.50;;;15.30;99.90;;;;;;4978728;28;20027;-88
2023/12/28 10:51:00;;;;;;;27.88;25.52;;;15.30;99.90;;;;;;4961877;28;20035;-87
2023/12/28 10:53:46;;;;;;;24.42;22.40;;;15.30;99.90;;;;;;4977342;28;20026;-87
2023/12/28 10:56:27;;;;;;;23.15;21.08;;;15.40;99.90;;;;;;4977564;28;20563;-87
2023/12/28 10:59:23;;;;;;;25.27;21.85;;;15.50;99.90;;;;;;4977635;28;20027;-88
2023/12/28 11:01:54;;;;;;;24.15;21.95;;;15.90;99.90;;;;;;4927305;28;20048;-88
2023/12/28 11:04:48;;;;;;;22.40;20.38;;;16.10;99.90;;;;;;4985052;28;20118;-87
2023/12/28 11:07:18;;;;;;;21.60;19.83;;;16.40;99.90;;;;;;4977258;28;20027;-86
2023/12/28 11:09:45;;;;;;;23.00;21.25;;;16.70;99.90;;;;;;4976233;28;20059;-86
2023/12/28 11:12:18;;;;;;;23.83;21.75;;;16.70;99.90;;;;;;4991728;28;20117;-86
2023/12/28 11:14:48;;;;;;;25.63;23.40;;;16.70;99.90;;;;;;4975826;28;20031;-86
2023/12/28 11:17:16;;;;;;;23.95;21.88;;;16.70;99.90;;;;;;4961902;28;20125;-87
2023/12/28 11:19:44;;;;;;;23.45;21.75;;;16.50;99.90;;;;;;4959423;28;20369;-87
2023/12/28 11:22:11;;;;;;;24.10;21.95;;;16.10;99.90;;;;;;4959393;28;20480;-87
2023/12/28 11:24:38;;;;;;;24.08;21.60;;;15.80;99.90;;;;;;4959384;28;20037;-87
2023/12/28 11:27:05;;;;;;;23.73;21.65;;;15.80;99.90;;;;;;4959487;28;20038;-86
2023/12/28 11:29:32;;;;;;;23.40;21.52;;;15.70;99.90;;;;;;4959507;28;20058;-87
2023/12/28 11:32:00;;;;;;;24.27;22.17;;;15.60;99.90;;;;;;4959900;28;20027;-88
2023/12/28 11:34:41;;;;;;;22.38;20.48;;;15.60;99.90;;;;;;4975630;28;20113;-87
2023/12/28 11:37:12;;;;;;;24.08;21.63;;;15.30;99.90;;;;;;4975628;28;20110;-87
2023/12/28 11:39:40;;;;;;;23.42;21.35;;;15.20;99.90;;;;;;4991899;28;20027;-88
2023/12/28 11:42:08;;;;;;;23.85;21.48;;;15.10;99.90;;;;;;4975628;28;20041;-88
2023/12/28 11:44:43;;;;;;;22.60;20.80;;;15.00;99.90;;;;;;4975583;28;20083;-88
2023/12/28 11:47:21;;;;;;;22.23;20.40;;;14.90;99.90;;;;;;4973968;28;20488;-87
2023/12/28 11:49:51;;;;;;;24.20;21.77;;;14.80;99.90;;;;;;4959161;28;20404;-87
2023/12/28 11:52:31;;;;;;;22.42;20.38;;;14.80;99.90;;;;;;4959524;28;20113;-87
2023/12/28 11:54:59;;;;;;;23.52;21.17;;;14.70;99.90;;;;;;4959396;28;20031;-88
2023/12/28 11:57:26;;;;;;;21.48;19.45;;;14.80;99.90;;;;;;4959323;28;20023;-88
2023/12/28 11:59:57;;;;;;;22.50;20.48;;;15.00;99.90;;;;;;4959251;28;20074;-87
2023/12/28 12:02:25;;;;;;;22.30;20.35;;;15.20;99.90;;;;;;4959355;28;20547;-88
2023/12/28 12:04:53;;;;;;;21.25;19.15;;;15.30;99.90;;;;;;4958981;28;20031;-86
2023/12/28 12:07:19;;;;;;;19.05;17.52;;;15.50;99.90;;;;;;4958487;28;20053;-86
2023/12/28 12:09:58;;;;;;;20.95;18.85;;;15.70;99.90;;;;;;4885062;28;2124694;-86
2023/12/28 12:12:25;;;;;;;21.73;19.83;;;16.00;99.90;;;;;;4974804;28;20089;-84
2023/12/28 12:14:52;;;;;;;23.00;20.70;;;16.20;99.90;;;;;;4974950;28;20030;-87
2023/12/28 12:17:19;;;;;;;22.23;20.35;;;16.10;99.90;;;;;;4976809;28;20096;-86
2023/12/28 12:19:49;;;;;;;23.63;21.60;;;16.20;99.90;;;;;;4992037;28;20035;-86
2023/12/28 12:22:17;;;;;;;23.42;21.33;;;16.20;99.90;;;;;;4991341;28;20404;-83
2023/12/28 12:24:49;;;;;;;23.15;21.27;;;16.40;99.90;;;;;;4995300;28;20070;-84
2023/12/28 12:27:16;;;;;;;24.98;22.75;;;16.40;99.90;;;;;;4963531;28;20081;-85
2023/12/28 12:29:42;;;;;;;24.95;22.65;;;16.60;99.90;;;;;;4972259;28;20484;-88
2023/12/28 12:32:09;;;;;;;24.33;22.42;;;16.70;99.90;;;;;;4956170;29;20421;-84
2023/12/28 12:34:35;;;;;;;24.10;22.05;;;16.70;99.90;;;;;;4974876;28;20028;-83